sensor_id;sensor_type;location;lat;lon;timestamp;pressure;altitude;pressure_sealevel;temperature;humidity
63691;BME280;49837;57.280;27.070;2022-11-20T00:00:26;100106.29;;;-5.95;97.24
63691;BME280;49837;57.280;27.070;2022-11-20T00:01:27;100108.19;;;-5.92;97.19
63691;BME280;49837;57.280;27.070;2022-11-20T00:02:27;100108.67;;;-5.89;97.11
63691;BME280;49837;57.280;27.070;2022-11-20T00:03:27;100104.88;;;-5.85;97.07
63691;BME280;49837;57.280;27.070;2022-11-20T00:04:28;100108.26;;;-5.86;96.88
63691;BME280;49837;57.280;27.070;2022-11-20T00:05:28;100114.47;;;-5.87;96.98
63691;BME280;49837;57.280;27.070;2022-11-20T00:06:29;100113.32;;;-5.84;97.08
63691;BME280;49837;57.280;27.070;2022-11-20T00:07:29;100118.42;;;-5.78;97.07
63691;BME280;49837;57.280;27.070;2022-11-20T00:08:29;100118.59;;;-5.8;96.94
63691;BME280;49837;57.280;27.070;2022-11-20T00:09:30;100115.37;;;-5.89;96.83
63691;BME280;49837;57.280;27.070;2022-11-20T00:10:31;100111.91;;;-5.88;96.89
63691;BME280;49837;57.280;27.070;2022-11-20T00:11:31;100115.33;;;-5.9;96.88
63691;BME280;49837;57.280;27.070;2022-11-20T00:12:31;100105.7;;;-5.91;96.88
63691;BME280;49837;57.280;27.070;2022-11-20T00:13:32;100102.98;;;-5.87;97.04
63691;BME280;49837;57.280;27.070;2022-11-20T00:14:32;100101.94;;;-5.83;97.03
63691;BME280;49837;57.280;27.070;2022-11-20T00:15:32;100105.66;;;-5.9;96.86
63691;BME280;49837;57.280;27.070;2022-11-20T00:16:33;100107.17;;;-5.93;96.87
63691;BME280;49837;57.280;27.070;2022-11-20T00:17:33;100108.43;;;-5.92;96.93
63691;BME280;49837;57.280;27.070;2022-11-20T00:18:34;100106.65;;;-5.94;97.03
63691;BME280;49837;57.280;27.070;2022-11-20T00:19:34;100108.38;;;-5.89;97.05
63691;BME280;49837;57.280;27.070;2022-11-20T00:20:34;100106.14;;;-5.9;97.03
63691;BME280;49837;57.280;27.070;2022-11-20T00:21:35;100103.83;;;-5.87;96.92
63691;BME280;49837;57.280;27.070;2022-11-20T00:22:35;100105.41;;;-5.88;96.94
63691;BME280;49837;57.280;27.070;2022-11-20T00:23:35;100102.91;;;-5.9;96.93
63691;BME280;49837;57.280;27.070;2022-11-20T00:24:36;100102.22;;;-5.93;97.01
63691;BME280;49837;57.280;27.070;2022-11-20T00:25:39;100105.74;;;-5.9;97.14
63691;BME280;49837;57.280;27.070;2022-11-20T00:26:39;100105.3;;;-5.91;97.1
63691;BME280;49837;57.280;27.070;2022-11-20T00:27:40;100098.92;;;-5.92;97.05
63691;BME280;49837;57.280;27.070;2022-11-20T00:28:41;100102.55;;;-5.93;96.96
63691;BME280;49837;57.280;27.070;2022-11-20T00:29:40;100099.17;;;-5.91;97.04
63691;BME280;49837;57.280;27.070;2022-11-20T00:30:41;100103.36;;;-5.93;97.08
63691;BME280;49837;57.280;27.070;2022-11-20T00:31:41;100099.83;;;-5.91;97.1
63691;BME280;49837;57.280;27.070;2022-11-20T00:32:42;100101.92;;;-5.87;97.0
63691;BME280;49837;57.280;27.070;2022-11-20T00:33:43;100101.27;;;-5.88;96.91
63691;BME280;49837;57.280;27.070;2022-11-20T00:34:42;100101.36;;;-5.92;96.8
63691;BME280;49837;57.280;27.070;2022-11-20T00:35:43;100101.38;;;-5.93;96.8
63691;BME280;49837;57.280;27.070;2022-11-20T00:36:43;100101.36;;;-5.92;96.85
63691;BME280;49837;57.280;27.070;2022-11-20T00:37:44;100091.35;;;-5.97;96.84
63691;BME280;49837;57.280;27.070;2022-11-20T00:38:44;100093.09;;;-5.96;97.01
63691;BME280;49837;57.280;27.070;2022-11-20T00:39:44;100087.27;;;-5.93;97.21
63691;BME280;49837;57.280;27.070;2022-11-20T00:40:45;100090.28;;;-5.93;97.26
63691;BME280;49837;57.280;27.070;2022-11-20T00:41:49;100091.58;;;-5.9;97.36
63691;BME280;49837;57.280;27.070;2022-11-20T00:42:50;100090.8;;;-5.92;97.29
63691;BME280;49837;57.280;27.070;2022-11-20T00:43:54;100092.08;;;-5.94;97.26
63691;BME280;49837;57.280;27.070;2022-11-20T00:44:53;100087.38;;;-5.97;97.23
63691;BME280;49837;57.280;27.070;2022-11-20T00:46:03;100089.23;;;-5.97;97.28
63691;BME280;49837;57.280;27.070;2022-11-20T00:46:56;100084.8;;;-5.92;97.38
63691;BME280;49837;57.280;27.070;2022-11-20T00:47:57;100082.52;;;-5.92;97.28
63691;BME280;49837;57.280;27.070;2022-11-20T00:48:57;100089.11;;;-5.94;97.2
63691;BME280;49837;57.280;27.070;2022-11-20T00:49:57;100083.34;;;-5.96;97.16
63691;BME280;49837;57.280;27.070;2022-11-20T00:50:58;100085.14;;;-5.96;97.18
63691;BME280;49837;57.280;27.070;2022-11-20T00:51:58;100085.38;;;-5.97;97.21
63691;BME280;49837;57.280;27.070;2022-11-20T00:52:59;100085.34;;;-5.98;97.26
63691;BME280;49837;57.280;27.070;2022-11-20T00:53:59;100088.02;;;-5.97;97.3
63691;BME280;49837;57.280;27.070;2022-11-20T00:54:59;100088.84;;;-5.97;97.28
63691;BME280;49837;57.280;27.070;2022-11-20T00:56:06;100082.75;;;-6.0;97.23
63691;BME280;49837;57.280;27.070;2022-11-20T00:57:04;100080.42;;;-5.93;97.22
63691;BME280;49837;57.280;27.070;2022-11-20T00:58:05;100077.62;;;-5.95;97.13
63691;BME280;49837;57.280;27.070;2022-11-20T00:59:05;100081.12;;;-5.97;97.03
63691;BME280;49837;57.280;27.070;2022-11-20T01:00:06;100078.6;;;-5.97;97.07
63691;BME280;49837;57.280;27.070;2022-11-20T01:01:10;100081.08;;;-5.99;97.14
63691;BME280;49837;57.280;27.070;2022-11-20T01:02:09;100081.17;;;-6.03;97.14
63691;BME280;49837;57.280;27.070;2022-11-20T01:03:09;100084.5;;;-6.04;97.25
63691;BME280;49837;57.280;27.070;2022-11-20T01:04:10;100082.34;;;-6.01;97.35
63691;BME280;49837;57.280;27.070;2022-11-20T01:05:10;100080.59;;;-6.01;97.38
63691;BME280;49837;57.280;27.070;2022-11-20T01:07:12;100082.98;;;-6.0;97.4
63691;BME280;49837;57.280;27.070;2022-11-20T01:08:12;100079.85;;;-5.97;97.32
63691;BME280;49837;57.280;27.070;2022-11-20T01:09:14;100079.84;;;-5.92;97.28
63691;BME280;49837;57.280;27.070;2022-11-20T01:10:13;100076.67;;;-5.92;97.21
63691;BME280;49837;57.280;27.070;2022-11-20T01:11:19;100075.3;;;-5.94;97.14
63691;BME280;49837;57.280;27.070;2022-11-20T01:12:17;100078.07;;;-5.99;97.09
63691;BME280;49837;57.280;27.070;2022-11-20T01:13:17;100071.81;;;-5.99;97.16
63691;BME280;49837;57.280;27.070;2022-11-20T01:14:21;100077.91;;;-5.98;97.13
63691;BME280;49837;57.280;27.070;2022-11-20T01:15:22;100075.1;;;-5.95;97.12
63691;BME280;49837;57.280;27.070;2022-11-20T01:16:31;100070.83;;;-5.92;97.06
63691;BME280;49837;57.280;27.070;2022-11-20T01:17:24;100069.97;;;-5.9;96.88
63691;BME280;49837;57.280;27.070;2022-11-20T01:18:24;100070.52;;;-5.93;96.75
63691;BME280;49837;57.280;27.070;2022-11-20T01:19:24;100074.01;;;-5.97;96.71
63691;BME280;49837;57.280;27.070;2022-11-20T01:20:25;100071.68;;;-5.93;96.81
63691;BME280;49837;57.280;27.070;2022-11-20T01:21:29;100067.62;;;-5.92;96.74
63691;BME280;49837;57.280;27.070;2022-11-20T01:22:27;100067.06;;;-5.95;96.67
63691;BME280;49837;57.280;27.070;2022-11-20T01:23:30;100065.98;;;-5.98;96.63
63691;BME280;49837;57.280;27.070;2022-11-20T01:24:28;100071.62;;;-6.01;96.65
63691;BME280;49837;57.280;27.070;2022-11-20T01:25:29;100068.97;;;-5.97;96.8
63691;BME280;49837;57.280;27.070;2022-11-20T01:26:34;100069.87;;;-5.96;96.84
63691;BME280;49837;57.280;27.070;2022-11-20T01:27:32;100070.06;;;-5.92;96.78
63691;BME280;49837;57.280;27.070;2022-11-20T01:28:33;100069.91;;;-5.95;96.67
63691;BME280;49837;57.280;27.070;2022-11-20T01:29:32;100068.19;;;-5.93;96.72
63691;BME280;49837;57.280;27.070;2022-11-20T01:30:33;100065.69;;;-5.98;96.78
63691;BME280;49837;57.280;27.070;2022-11-20T01:31:36;100063.91;;;-6.0;96.84
63691;BME280;49837;57.280;27.070;2022-11-20T01:32:34;100064.55;;;-5.98;96.92
63691;BME280;49837;57.280;27.070;2022-11-20T01:33:34;100063.25;;;-5.98;96.92
63691;BME280;49837;57.280;27.070;2022-11-20T01:34:34;100066.5;;;-5.98;96.92
63691;BME280;49837;57.280;27.070;2022-11-20T01:35:35;100064.76;;;-6.01;96.9
63691;BME280;49837;57.280;27.070;2022-11-20T01:36:37;100071.58;;;-6.02;96.96
63691;BME280;49837;57.280;27.070;2022-11-20T01:37:36;100068.08;;;-5.99;97.07
63691;BME280;49837;57.280;27.070;2022-11-20T01:38:36;100067.27;;;-5.98;97.11
63691;BME280;49837;57.280;27.070;2022-11-20T01:39:36;100069.47;;;-5.98;97.14
63691;BME280;49837;57.280;27.070;2022-11-20T01:40:37;100067.56;;;-5.9;97.14
63691;BME280;49837;57.280;27.070;2022-11-20T01:41:37;100069.75;;;-5.85;96.99
63691;BME280;49837;57.280;27.070;2022-11-20T01:42:38;100068.94;;;-5.85;96.85
63691;BME280;49837;57.280;27.070;2022-11-20T01:43:38;100070.84;;;-5.87;96.84
63691;BME280;49837;57.280;27.070;2022-11-20T01:46:53;100067.46;;;-5.92;96.64
63691;BME280;49837;57.280;27.070;2022-11-20T01:47:45;100065.31;;;-5.94;96.67
63691;BME280;49837;57.280;27.070;2022-11-20T01:49:50;100064.2;;;-5.91;96.64
63691;BME280;49837;57.280;27.070;2022-11-20T01:50:51;100062.86;;;-5.92;96.57
63691;BME280;49837;57.280;27.070;2022-11-20T01:53:57;100059.4;;;-5.98;96.53
63691;BME280;49837;57.280;27.070;2022-11-20T01:55:05;100058.3;;;-6.0;96.53
63691;BME280;49837;57.280;27.070;2022-11-20T01:56:01;100059.45;;;-5.92;96.61
63691;BME280;49837;57.280;27.070;2022-11-20T01:57:01;100061.66;;;-5.87;96.48
63691;BME280;49837;57.280;27.070;2022-11-20T01:58:02;100059.61;;;-5.9;96.41
63691;BME280;49837;57.280;27.070;2022-11-20T01:59:04;100056.89;;;-5.91;96.43
63691;BME280;49837;57.280;27.070;2022-11-20T02:00:09;100057.3;;;-5.93;96.42
63691;BME280;49837;57.280;27.070;2022-11-20T02:01:04;100055.56;;;-5.94;96.49
63691;BME280;49837;57.280;27.070;2022-11-20T02:02:03;100058.73;;;-5.96;96.49
63691;BME280;49837;57.280;27.070;2022-11-20T02:03:07;100058.22;;;-6.0;96.49
63691;BME280;49837;57.280;27.070;2022-11-20T02:04:07;100059.12;;;-6.04;96.54
63691;BME280;49837;57.280;27.070;2022-11-20T02:07:13;100052.09;;;-6.02;96.79
63691;BME280;49837;57.280;27.070;2022-11-20T02:08:13;100050.59;;;-6.02;96.77
63691;BME280;49837;57.280;27.070;2022-11-20T02:09:14;100049.78;;;-6.05;96.76
63691;BME280;49837;57.280;27.070;2022-11-20T02:10:14;100048.83;;;-6.09;96.76
63691;BME280;49837;57.280;27.070;2022-11-20T02:11:14;100051.14;;;-6.1;96.79
63691;BME280;49837;57.280;27.070;2022-11-20T02:12:15;100049.04;;;-6.12;96.83
63691;BME280;49837;57.280;27.070;2022-11-20T02:13:15;100052.84;;;-6.1;96.88
63691;BME280;49837;57.280;27.070;2022-11-20T02:14:15;100054.8;;;-6.1;96.87
63691;BME280;49837;57.280;27.070;2022-11-20T02:15:16;100053.32;;;-6.06;96.87
63691;BME280;49837;57.280;27.070;2022-11-20T02:16:22;100057.21;;;-6.04;96.9
63691;BME280;49837;57.280;27.070;2022-11-20T02:17:21;100054.94;;;-6.04;96.76
63691;BME280;49837;57.280;27.070;2022-11-20T02:18:21;100055.7;;;-6.01;96.7
63691;BME280;49837;57.280;27.070;2022-11-20T02:20:24;100052.14;;;-6.02;96.62
63691;BME280;49837;57.280;27.070;2022-11-20T02:22:31;100053.61;;;-6.07;96.5
63691;BME280;49837;57.280;27.070;2022-11-20T02:24:28;100054.53;;;-6.03;96.49
63691;BME280;49837;57.280;27.070;2022-11-20T02:25:30;100057.78;;;-6.03;96.42
63691;BME280;49837;57.280;27.070;2022-11-20T02:26:32;100057.54;;;-6.04;96.37
63691;BME280;49837;57.280;27.070;2022-11-20T02:27:32;100055.8;;;-6.04;96.35
63691;BME280;49837;57.280;27.070;2022-11-20T02:28:32;100057.16;;;-6.01;96.29
63691;BME280;49837;57.280;27.070;2022-11-20T02:30:37;100057.77;;;-5.98;96.22
63691;BME280;49837;57.280;27.070;2022-11-20T02:31:39;100058.5;;;-6.01;96.15
63691;BME280;49837;57.280;27.070;2022-11-20T02:32:39;100058.02;;;-5.99;96.18
63691;BME280;49837;57.280;27.070;2022-11-20T02:33:38;100058.17;;;-5.99;96.12
63691;BME280;49837;57.280;27.070;2022-11-20T02:34:39;100052.25;;;-6.01;96.09
63691;BME280;49837;57.280;27.070;2022-11-20T02:35:44;100051.03;;;-5.99;96.14
63691;BME280;49837;57.280;27.070;2022-11-20T02:36:44;100052.77;;;-5.97;96.14
63691;BME280;49837;57.280;27.070;2022-11-20T02:37:44;100053.82;;;-5.95;96.13
63691;BME280;49837;57.280;27.070;2022-11-20T02:38:43;100053.91;;;-5.88;96.11
63691;BME280;49837;57.280;27.070;2022-11-20T02:39:46;100056.89;;;-5.81;95.97
63691;BME280;49837;57.280;27.070;2022-11-20T02:40:45;100054.86;;;-5.82;95.93
63691;BME280;49837;57.280;27.070;2022-11-20T02:41:52;100059.6;;;-5.78;95.9
63691;BME280;49837;57.280;27.070;2022-11-20T02:42:54;100058.72;;;-5.8;95.85
63691;BME280;49837;57.280;27.070;2022-11-20T02:43:53;100053.69;;;-5.8;95.85
63691;BME280;49837;57.280;27.070;2022-11-20T02:44:53;100050.95;;;-5.79;95.84
63691;BME280;49837;57.280;27.070;2022-11-20T02:45:54;100054.77;;;-5.79;95.78
63691;BME280;49837;57.280;27.070;2022-11-20T02:46:57;100054.2;;;-5.79;95.64
63691;BME280;49837;57.280;27.070;2022-11-20T02:47:55;100056.41;;;-5.81;95.57
63691;BME280;49837;57.280;27.070;2022-11-20T02:48:55;100058.67;;;-5.79;95.55
63691;BME280;49837;57.280;27.070;2022-11-20T02:49:56;100055.12;;;-5.83;95.59
63691;BME280;49837;57.280;27.070;2022-11-20T02:50:56;100058.56;;;-5.8;95.63
63691;BME280;49837;57.280;27.070;2022-11-20T02:51:56;100057.98;;;-5.78;95.62
63691;BME280;49837;57.280;27.070;2022-11-20T02:52:57;100059.65;;;-5.79;95.61
63691;BME280;49837;57.280;27.070;2022-11-20T02:53:57;100061.38;;;-5.76;95.64
63691;BME280;49837;57.280;27.070;2022-11-20T02:54:58;100062.31;;;-5.75;95.61
63691;BME280;49837;57.280;27.070;2022-11-20T02:55:58;100060.57;;;-5.76;95.59
63691;BME280;49837;57.280;27.070;2022-11-20T02:56:58;100059.27;;;-5.76;95.56
63691;BME280;49837;57.280;27.070;2022-11-20T02:57:59;100059.39;;;-5.75;95.59
63691;BME280;49837;57.280;27.070;2022-11-20T02:58:59;100054.34;;;-5.75;95.63
63691;BME280;49837;57.280;27.070;2022-11-20T03:00:00;100059.53;;;-5.73;95.59
63691;BME280;49837;57.280;27.070;2022-11-20T03:01:00;100056.28;;;-5.73;95.58
63691;BME280;49837;57.280;27.070;2022-11-20T03:02:00;100055.0;;;-5.75;95.53
63691;BME280;49837;57.280;27.070;2022-11-20T03:03:01;100057.52;;;-5.75;95.53
63691;BME280;49837;57.280;27.070;2022-11-20T03:04:02;100056.93;;;-5.8;95.44
63691;BME280;49837;57.280;27.070;2022-11-20T03:05:02;100054.36;;;-5.79;95.45
63691;BME280;49837;57.280;27.070;2022-11-20T03:06:02;100056.8;;;-5.77;95.46
63691;BME280;49837;57.280;27.070;2022-11-20T03:07:03;100052.16;;;-5.77;95.55
63691;BME280;49837;57.280;27.070;2022-11-20T03:08:03;100056.52;;;-5.78;95.51
63691;BME280;49837;57.280;27.070;2022-11-20T03:09:03;100052.91;;;-5.79;95.58
63691;BME280;49837;57.280;27.070;2022-11-20T03:10:04;100053.36;;;-5.8;95.61
63691;BME280;49837;57.280;27.070;2022-11-20T03:11:05;100047.92;;;-5.82;95.6
63691;BME280;49837;57.280;27.070;2022-11-20T03:12:05;100052.11;;;-5.83;95.61
63691;BME280;49837;57.280;27.070;2022-11-20T03:13:05;100052.44;;;-5.83;95.61
63691;BME280;49837;57.280;27.070;2022-11-20T03:14:05;100047.92;;;-5.82;95.65
63691;BME280;49837;57.280;27.070;2022-11-20T03:15:06;100048.84;;;-5.86;95.56
63691;BME280;49837;57.280;27.070;2022-11-20T03:16:11;100050.73;;;-5.84;95.62
63691;BME280;49837;57.280;27.070;2022-11-20T03:17:09;100047.77;;;-5.82;95.62
63691;BME280;49837;57.280;27.070;2022-11-20T03:18:09;100052.24;;;-5.77;95.66
63691;BME280;49837;57.280;27.070;2022-11-20T03:19:11;100054.59;;;-5.82;95.51
63691;BME280;49837;57.280;27.070;2022-11-20T03:20:11;100053.23;;;-5.81;95.56
63691;BME280;49837;57.280;27.070;2022-11-20T03:21:11;100050.98;;;-5.76;95.6
63691;BME280;49837;57.280;27.070;2022-11-20T03:22:11;100052.14;;;-5.8;95.51
63691;BME280;49837;57.280;27.070;2022-11-20T03:23:11;100051.25;;;-5.82;95.56
63691;BME280;49837;57.280;27.070;2022-11-20T03:24:13;100051.52;;;-5.77;95.65
63691;BME280;49837;57.280;27.070;2022-11-20T03:25:12;100048.0;;;-5.73;95.63
63691;BME280;49837;57.280;27.070;2022-11-20T03:26:16;100049.42;;;-5.72;95.5
63691;BME280;49837;57.280;27.070;2022-11-20T03:27:14;100051.09;;;-5.75;95.42
63691;BME280;49837;57.280;27.070;2022-11-20T03:28:14;100046.52;;;-5.78;95.37
63691;BME280;49837;57.280;27.070;2022-11-20T03:29:15;100048.64;;;-5.8;95.43
63691;BME280;49837;57.280;27.070;2022-11-20T03:30:15;100050.99;;;-5.78;95.47
63691;BME280;49837;57.280;27.070;2022-11-20T03:31:17;100049.77;;;-5.78;95.44
63691;BME280;49837;57.280;27.070;2022-11-20T03:32:16;100047.33;;;-5.86;95.33
63691;BME280;49837;57.280;27.070;2022-11-20T03:33:16;100049.56;;;-5.87;95.42
63691;BME280;49837;57.280;27.070;2022-11-20T03:34:17;100045.36;;;-5.91;95.41
63691;BME280;49837;57.280;27.070;2022-11-20T03:35:17;100045.86;;;-5.92;95.43
63691;BME280;49837;57.280;27.070;2022-11-20T03:36:19;100044.64;;;-5.95;95.51
63691;BME280;49837;57.280;27.070;2022-11-20T03:37:18;100044.65;;;-5.94;95.61
63691;BME280;49837;57.280;27.070;2022-11-20T03:38:18;100044.41;;;-5.86;95.76
63691;BME280;49837;57.280;27.070;2022-11-20T03:39:19;100047.61;;;-5.84;95.71
63691;BME280;49837;57.280;27.070;2022-11-20T03:40:19;100045.95;;;-5.88;95.52
63691;BME280;49837;57.280;27.070;2022-11-20T03:41:25;100043.8;;;-5.89;95.55
63691;BME280;49837;57.280;27.070;2022-11-20T03:42:23;100045.16;;;-5.92;95.58
63691;BME280;49837;57.280;27.070;2022-11-20T03:43:23;100048.14;;;-5.95;95.66
63691;BME280;49837;57.280;27.070;2022-11-20T03:44:24;100044.04;;;-5.96;95.76
63691;BME280;49837;57.280;27.070;2022-11-20T03:45:24;100043.68;;;-5.97;95.8
63691;BME280;49837;57.280;27.070;2022-11-20T03:46:25;100045.09;;;-5.94;95.87
63691;BME280;49837;57.280;27.070;2022-11-20T03:47:25;100049.59;;;-5.93;95.87
63691;BME280;49837;57.280;27.070;2022-11-20T03:48:25;100043.78;;;-5.94;95.82
63691;BME280;49837;57.280;27.070;2022-11-20T03:49:25;100049.42;;;-5.91;95.78
63691;BME280;49837;57.280;27.070;2022-11-20T03:50:26;100045.12;;;-5.91;95.77
63691;BME280;49837;57.280;27.070;2022-11-20T03:51:31;100042.67;;;-5.91;95.74
63691;BME280;49837;57.280;27.070;2022-11-20T03:52:29;100043.34;;;-5.93;95.73
63691;BME280;49837;57.280;27.070;2022-11-20T03:53:30;100042.33;;;-5.97;95.71
63691;BME280;49837;57.280;27.070;2022-11-20T03:54:30;100040.91;;;-5.94;95.83
63691;BME280;49837;57.280;27.070;2022-11-20T03:55:30;100041.27;;;-5.92;95.86
63691;BME280;49837;57.280;27.070;2022-11-20T03:56:34;100042.28;;;-5.92;95.91
63691;BME280;49837;57.280;27.070;2022-11-20T03:57:32;100046.58;;;-5.91;95.92
63691;BME280;49837;57.280;27.070;2022-11-20T03:58:33;100044.06;;;-5.91;95.99
63691;BME280;49837;57.280;27.070;2022-11-20T03:59:33;100042.59;;;-5.91;95.96
63691;BME280;49837;57.280;27.070;2022-11-20T04:00:33;100048.72;;;-5.88;95.97
63691;BME280;49837;57.280;27.070;2022-11-20T04:01:35;100048.7;;;-5.86;95.96
63691;BME280;49837;57.280;27.070;2022-11-20T04:02:34;100041.97;;;-5.85;95.95
63691;BME280;49837;57.280;27.070;2022-11-20T04:03:35;100044.66;;;-5.87;95.95
63691;BME280;49837;57.280;27.070;2022-11-20T04:04:35;100044.81;;;-5.85;95.98
63691;BME280;49837;57.280;27.070;2022-11-20T04:05:35;100046.47;;;-5.85;96.01
63691;BME280;49837;57.280;27.070;2022-11-20T04:06:37;100046.07;;;-5.77;96.03
63691;BME280;49837;57.280;27.070;2022-11-20T04:07:36;100042.98;;;-5.75;95.92
63691;BME280;49837;57.280;27.070;2022-11-20T04:08:36;100043.55;;;-5.77;95.77
63691;BME280;49837;57.280;27.070;2022-11-20T04:09:37;100049.73;;;-5.77;95.76
63691;BME280;49837;57.280;27.070;2022-11-20T04:10:37;100047.12;;;-5.77;95.73
63691;BME280;49837;57.280;27.070;2022-11-20T04:11:39;100053.41;;;-5.74;95.72
63691;BME280;49837;57.280;27.070;2022-11-20T04:12:38;100048.74;;;-5.75;95.68
63691;BME280;49837;57.280;27.070;2022-11-20T04:13:39;100050.85;;;-5.75;95.67
63691;BME280;49837;57.280;27.070;2022-11-20T04:14:39;100049.55;;;-5.75;95.64
63691;BME280;49837;57.280;27.070;2022-11-20T04:15:39;100051.03;;;-5.77;95.67
63691;BME280;49837;57.280;27.070;2022-11-20T04:16:39;100053.59;;;-5.78;95.7
63691;BME280;49837;57.280;27.070;2022-11-20T04:17:40;100055.09;;;-5.8;95.74
63691;BME280;49837;57.280;27.070;2022-11-20T04:18:40;100057.98;;;-5.78;95.85
63691;BME280;49837;57.280;27.070;2022-11-20T04:19:41;100057.94;;;-5.79;95.84
63691;BME280;49837;57.280;27.070;2022-11-20T04:20:41;100058.27;;;-5.82;95.87
63691;BME280;49837;57.280;27.070;2022-11-20T04:21:43;100055.39;;;-5.8;96.0
63691;BME280;49837;57.280;27.070;2022-11-20T04:22:42;100055.0;;;-5.85;95.91
63691;BME280;49837;57.280;27.070;2022-11-20T04:23:42;100061.17;;;-5.85;95.94
63691;BME280;49837;57.280;27.070;2022-11-20T04:24:43;100061.27;;;-5.86;95.87
63691;BME280;49837;57.280;27.070;2022-11-20T04:25:43;100060.03;;;-5.84;95.94
63691;BME280;49837;57.280;27.070;2022-11-20T04:26:43;100061.03;;;-5.81;95.86
63691;BME280;49837;57.280;27.070;2022-11-20T04:27:44;100063.41;;;-5.83;95.75
63691;BME280;49837;57.280;27.070;2022-11-20T04:28:44;100061.95;;;-5.86;95.73
63691;BME280;49837;57.280;27.070;2022-11-20T04:29:44;100063.04;;;-5.85;95.71
63691;BME280;49837;57.280;27.070;2022-11-20T04:30:45;100063.11;;;-5.82;95.65
63691;BME280;49837;57.280;27.070;2022-11-20T04:31:45;100065.25;;;-5.89;95.62
63691;BME280;49837;57.280;27.070;2022-11-20T04:32:46;100069.12;;;-5.85;95.58
63691;BME280;49837;57.280;27.070;2022-11-20T04:33:46;100064.41;;;-5.8;95.53
63691;BME280;49837;57.280;27.070;2022-11-20T04:34:46;100071.74;;;-5.77;95.4
63691;BME280;49837;57.280;27.070;2022-11-20T04:35:47;100067.37;;;-5.79;95.3
63691;BME280;49837;57.280;27.070;2022-11-20T04:36:47;100065.06;;;-5.83;95.13
63691;BME280;49837;57.280;27.070;2022-11-20T04:37:50;100068.59;;;-5.81;95.11
63691;BME280;49837;57.280;27.070;2022-11-20T04:39:53;100073.14;;;-5.81;95.17
63691;BME280;49837;57.280;27.070;2022-11-20T04:41:58;100074.54;;;-5.86;95.04
63691;BME280;49837;57.280;27.070;2022-11-20T04:42:59;100071.09;;;-5.87;95.0
63691;BME280;49837;57.280;27.070;2022-11-20T04:44:00;100072.97;;;-5.91;94.97
63691;BME280;49837;57.280;27.070;2022-11-20T04:44:59;100070.15;;;-5.94;94.96
63691;BME280;49837;57.280;27.070;2022-11-20T04:46:00;100072.09;;;-5.95;94.95
63691;BME280;49837;57.280;27.070;2022-11-20T04:47:00;100075.86;;;-5.92;94.96
63691;BME280;49837;57.280;27.070;2022-11-20T04:48:00;100073.06;;;-5.93;94.89
63691;BME280;49837;57.280;27.070;2022-11-20T04:49:01;100070.89;;;-5.97;94.83
63691;BME280;49837;57.280;27.070;2022-11-20T04:50:01;100081.85;;;-6.0;94.86
63691;BME280;49837;57.280;27.070;2022-11-20T04:51:05;100079.17;;;-6.03;94.88
63691;BME280;49837;57.280;27.070;2022-11-20T04:52:03;100079.02;;;-6.02;94.89
63691;BME280;49837;57.280;27.070;2022-11-20T04:53:03;100080.0;;;-6.04;94.89
63691;BME280;49837;57.280;27.070;2022-11-20T04:54:04;100083.12;;;-6.08;94.93
63691;BME280;49837;57.280;27.070;2022-11-20T04:55:04;100079.85;;;-6.1;95.0
63691;BME280;49837;57.280;27.070;2022-11-20T04:56:06;100084.27;;;-6.12;95.05
63691;BME280;49837;57.280;27.070;2022-11-20T04:57:05;100083.03;;;-6.2;95.05
63691;BME280;49837;57.280;27.070;2022-11-20T04:58:11;100085.16;;;-6.21;95.1
63691;BME280;49837;57.280;27.070;2022-11-20T04:59:10;100083.61;;;-6.21;95.17
63691;BME280;49837;57.280;27.070;2022-11-20T05:00:12;100082.23;;;-6.22;95.25
63691;BME280;49837;57.280;27.070;2022-11-20T05:01:13;100084.34;;;-6.2;95.33
63691;BME280;49837;57.280;27.070;2022-11-20T05:02:12;100088.08;;;-6.21;95.38
63691;BME280;49837;57.280;27.070;2022-11-20T05:03:12;100083.22;;;-6.25;95.37
63691;BME280;49837;57.280;27.070;2022-11-20T05:04:12;100086.17;;;-6.24;95.46
63691;BME280;49837;57.280;27.070;2022-11-20T05:05:13;100085.4;;;-6.21;95.56
63691;BME280;49837;57.280;27.070;2022-11-20T05:06:15;100090.42;;;-6.2;95.54
63691;BME280;49837;57.280;27.070;2022-11-20T05:07:14;100084.25;;;-6.17;95.5
63691;BME280;49837;57.280;27.070;2022-11-20T05:08:14;100086.64;;;-6.14;95.43
63691;BME280;49837;57.280;27.070;2022-11-20T05:09:14;100088.79;;;-6.15;95.35
63691;BME280;49837;57.280;27.070;2022-11-20T05:10:15;100086.84;;;-6.13;95.2
63691;BME280;49837;57.280;27.070;2022-11-20T05:11:19;100083.89;;;-6.18;95.03
63691;BME280;49837;57.280;27.070;2022-11-20T05:12:17;100081.47;;;-6.22;95.01
63691;BME280;49837;57.280;27.070;2022-11-20T05:13:17;100085.39;;;-6.19;95.05
63691;BME280;49837;57.280;27.070;2022-11-20T05:14:18;100086.28;;;-6.17;94.98
63691;BME280;49837;57.280;27.070;2022-11-20T05:15:18;100086.85;;;-6.2;94.92
63691;BME280;49837;57.280;27.070;2022-11-20T05:16:21;100086.98;;;-6.23;94.92
63691;BME280;49837;57.280;27.070;2022-11-20T05:17:19;100086.95;;;-6.25;94.96
63691;BME280;49837;57.280;27.070;2022-11-20T05:18:20;100085.33;;;-6.25;95.04
63691;BME280;49837;57.280;27.070;2022-11-20T05:19:20;100092.09;;;-6.23;94.98
63691;BME280;49837;57.280;27.070;2022-11-20T05:20:21;100091.57;;;-6.23;94.94
63691;BME280;49837;57.280;27.070;2022-11-20T05:21:22;100094.41;;;-6.26;94.92
63691;BME280;49837;57.280;27.070;2022-11-20T05:22:22;100092.27;;;-6.31;94.82
63691;BME280;49837;57.280;27.070;2022-11-20T05:23:22;100094.34;;;-6.25;94.88
63691;BME280;49837;57.280;27.070;2022-11-20T05:24:22;100097.05;;;-6.25;94.79
63691;BME280;49837;57.280;27.070;2022-11-20T05:25:23;100096.94;;;-6.3;94.78
63691;BME280;49837;57.280;27.070;2022-11-20T05:26:23;100105.05;;;-6.3;94.79
63691;BME280;49837;57.280;27.070;2022-11-20T05:27:23;100104.83;;;-6.34;94.75
63691;BME280;49837;57.280;27.070;2022-11-20T05:28:24;100109.6;;;-6.3;94.79